sensor_id;sensor_type;location;lat;lon;timestamp;temperature;humidity
15872;DHT22;8035;51.962;7.162;2023-04-06T00:01:06;2.00;99.90
15872;DHT22;8035;51.962;7.162;2023-04-06T00:03:32;1.90;99.90
15872;DHT22;8035;51.962;7.162;2023-04-06T00:05:58;1.80;99.90
15872;DHT22;8035;51.962;7.162;2023-04-06T00:08:24;1.80;99.90
15872;DHT22;8035;51.962;7.162;2023-04-06T00:10:49;1.80;99.90
15872;DHT22;8035;51.962;7.162;2023-04-06T00:13:15;1.80;99.90
15872;DHT22;8035;51.962;7.162;2023-04-06T00:15:41;1.80;99.90
15872;DHT22;8035;51.962;7.162;2023-04-06T00:18:06;1.80;99.90
15872;DHT22;8035;51.962;7.162;2023-04-06T00:20:32;1.80;99.90
15872;DHT22;8035;51.962;7.162;2023-04-06T00:22:58;1.70;99.90
15872;DHT22;8035;51.962;7.162;2023-04-06T00:25:24;1.80;99.90
15872;DHT22;8035;51.962;7.162;2023-04-06T00:27:50;1.80;99.90
15872;DHT22;8035;51.962;7.162;2023-04-06T00:30:15;1.70;99.90
15872;DHT22;8035;51.962;7.162;2023-04-06T00:32:41;1.70;99.90
15872;DHT22;8035;51.962;7.162;2023-04-06T00:35:07;1.60;99.90
15872;DHT22;8035;51.962;7.162;2023-04-06T00:37:33;1.50;99.90
15872;DHT22;8035;51.962;7.162;2023-04-06T00:39:58;1.50;99.90
15872;DHT22;8035;51.962;7.162;2023-04-06T00:42:24;1.40;99.90
15872;DHT22;8035;51.962;7.162;2023-04-06T00:44:57;1.30;99.90
15872;DHT22;8035;51.962;7.162;2023-04-06T00:47:24;1.30;99.90
15872;DHT22;8035;51.962;7.162;2023-04-06T00:49:53;1.20;99.90
15872;DHT22;8035;51.962;7.162;2023-04-06T00:52:20;1.20;99.90
15872;DHT22;8035;51.962;7.162;2023-04-06T00:54:46;1.20;99.90
15872;DHT22;8035;51.962;7.162;2023-04-06T00:57:12;1.10;99.90
15872;DHT22;8035;51.962;7.162;2023-04-06T00:59:38;1.10;99.90
15872;DHT22;8035;51.962;7.162;2023-04-06T01:02:04;1.10;99.90
15872;DHT22;8035;51.962;7.162;2023-04-06T01:04:31;1.10;99.90
15872;DHT22;8035;51.962;7.162;2023-04-06T01:06:57;1.10;99.90
15872;DHT22;8035;51.962;7.162;2023-04-06T01:09:22;1.10;99.90
15872;DHT22;8035;51.962;7.162;2023-04-06T01:11:48;1.10;99.90
15872;DHT22;8035;51.962;7.162;2023-04-06T01:14:14;1.10;99.90
15872;DHT22;8035;51.962;7.162;2023-04-06T01:16:41;1.10;99.90
15872;DHT22;8035;51.962;7.162;2023-04-06T01:19:08;1.00;99.90
15872;DHT22;8035;51.962;7.162;2023-04-06T01:21:35;1.10;99.90
15872;DHT22;8035;51.962;7.162;2023-04-06T01:24:01;1.00;99.90
15872;DHT22;8035;51.962;7.162;2023-04-06T01:26:27;1.00;99.90
15872;DHT22;8035;51.962;7.162;2023-04-06T01:28:55;1.00;99.90
15872;DHT22;8035;51.962;7.162;2023-04-06T01:31:21;0.90;99.90
15872;DHT22;8035;51.962;7.162;2023-04-06T01:33:47;0.90;99.90
15872;DHT22;8035;51.962;7.162;2023-04-06T01:36:13;0.90;99.90
15872;DHT22;8035;51.962;7.162;2023-04-06T01:38:39;0.90;99.90
15872;DHT22;8035;51.962;7.162;2023-04-06T01:41:05;0.80;99.90
15872;DHT22;8035;51.962;7.162;2023-04-06T01:43:30;0.80;99.90
15872;DHT22;8035;51.962;7.162;2023-04-06T01:45:56;0.80;99.90
15872;DHT22;8035;51.962;7.162;2023-04-06T01:48:22;0.80;99.90
15872;DHT22;8035;51.962;7.162;2023-04-06T01:50:47;0.80;99.90
15872;DHT22;8035;51.962;7.162;2023-04-06T01:53:13;0.70;99.90
15872;DHT22;8035;51.962;7.162;2023-04-06T01:55:39;0.70;99.90
15872;DHT22;8035;51.962;7.162;2023-04-06T01:58:05;0.70;99.90
15872;DHT22;8035;51.962;7.162;2023-04-06T02:00:31;0.70;99.90
15872;DHT22;8035;51.962;7.162;2023-04-06T02:02:56;0.70;99.90
15872;DHT22;8035;51.962;7.162;2023-04-06T02:05:22;0.70;99.90
15872;DHT22;8035;51.962;7.162;2023-04-06T02:07:48;0.70;99.90
15872;DHT22;8035;51.962;7.162;2023-04-06T02:10:14;0.70;99.90
15872;DHT22;8035;51.962;7.162;2023-04-06T02:12:40;0.70;99.90
15872;DHT22;8035;51.962;7.162;2023-04-06T02:15:07;0.60;99.90
15872;DHT22;8035;51.962;7.162;2023-04-06T02:17:32;0.60;99.90
15872;DHT22;8035;51.962;7.162;2023-04-06T02:19:58;0.60;99.90
15872;DHT22;8035;51.962;7.162;2023-04-06T02:22:24;0.60;99.90
15872;DHT22;8035;51.962;7.162;2023-04-06T02:24:49;0.60;99.90
15872;DHT22;8035;51.962;7.162;2023-04-06T02:27:15;0.60;99.90
15872;DHT22;8035;51.962;7.162;2023-04-06T02:29:41;0.50;99.90
15872;DHT22;8035;51.962;7.162;2023-04-06T02:32:07;0.50;99.90
15872;DHT22;8035;51.962;7.162;2023-04-06T02:34:33;0.50;99.90
15872;DHT22;8035;51.962;7.162;2023-04-06T02:36:58;0.40;99.90
15872;DHT22;8035;51.962;7.162;2023-04-06T02:39:24;0.50;99.90
15872;DHT22;8035;51.962;7.162;2023-04-06T02:41:50;0.50;99.90
15872;DHT22;8035;51.962;7.162;2023-04-06T02:44:16;0.50;99.90
15872;DHT22;8035;51.962;7.162;2023-04-06T02:46:41;0.50;99.90
15872;DHT22;8035;51.962;7.162;2023-04-06T02:49:07;0.50;99.90
15872;DHT22;8035;51.962;7.162;2023-04-06T02:51:33;0.50;99.90
15872;DHT22;8035;51.962;7.162;2023-04-06T02:53:59;0.50;99.90
15872;DHT22;8035;51.962;7.162;2023-04-06T02:56:24;0.50;99.90
15872;DHT22;8035;51.962;7.162;2023-04-06T02:58:52;0.50;99.90
15872;DHT22;8035;51.962;7.162;2023-04-06T03:01:17;0.50;99.90
15872;DHT22;8035;51.962;7.162;2023-04-06T03:03:43;0.50;99.90
15872;DHT22;8035;51.962;7.162;2023-04-06T03:06:09;0.40;99.90
15872;DHT22;8035;51.962;7.162;2023-04-06T03:08:34;0.40;99.90
15872;DHT22;8035;51.962;7.162;2023-04-06T03:11:00;0.40;99.90
15872;DHT22;8035;51.962;7.162;2023-04-06T03:13:26;0.40;99.90
15872;DHT22;8035;51.962;7.162;2023-04-06T03:15:52;0.40;99.90
15872;DHT22;8035;51.962;7.162;2023-04-06T03:18:24;0.30;99.90
15872;DHT22;8035;51.962;7.162;2023-04-06T03:20:50;0.30;99.90
15872;DHT22;8035;51.962;7.162;2023-04-06T03:23:16;0.30;99.90
15872;DHT22;8035;51.962;7.162;2023-04-06T03:25:42;0.20;99.90
15872;DHT22;8035;51.962;7.162;2023-04-06T03:28:08;0.20;99.90
15872;DHT22;8035;51.962;7.162;2023-04-06T03:30:34;0.20;99.90
15872;DHT22;8035;51.962;7.162;2023-04-06T03:33:00;0.10;99.90
15872;DHT22;8035;51.962;7.162;2023-04-06T03:35:25;0.10;99.90
15872;DHT22;8035;51.962;7.162;2023-04-06T03:37:51;0.10;99.90
15872;DHT22;8035;51.962;7.162;2023-04-06T03:40:17;0.20;99.90
15872;DHT22;8035;51.962;7.162;2023-04-06T03:42:42;0.10;99.90
15872;DHT22;8035;51.962;7.162;2023-04-06T03:45:08;0.10;99.90
15872;DHT22;8035;51.962;7.162;2023-04-06T03:47:34;0.10;99.90
15872;DHT22;8035;51.962;7.162;2023-04-06T03:50:00;0.10;99.90
15872;DHT22;8035;51.962;7.162;2023-04-06T03:52:26;0.10;99.90
15872;DHT22;8035;51.962;7.162;2023-04-06T03:54:52;0.10;99.90
15872;DHT22;8035;51.962;7.162;2023-04-06T03:57:17;0.10;99.90
15872;DHT22;8035;51.962;7.162;2023-04-06T03:59:43;0.00;99.90
15872;DHT22;8035;51.962;7.162;2023-04-06T04:02:09;0.00;99.90
15872;DHT22;8035;51.962;7.162;2023-04-06T04:04:34;0.00;99.90
15872;DHT22;8035;51.962;7.162;2023-04-06T04:07:00;0.00;99.90
15872;DHT22;8035;51.962;7.162;2023-04-06T04:09:26;0.00;99.90
15872;DHT22;8035;51.962;7.162;2023-04-06T04:11:51;0.00;99.90
15872;DHT22;8035;51.962;7.162;2023-04-06T04:14:17;0.00;99.90
15872;DHT22;8035;51.962;7.162;2023-04-06T04:16:43;0.00;99.90
15872;DHT22;8035;51.962;7.162;2023-04-06T04:19:08;0.00;99.90
15872;DHT22;8035;51.962;7.162;2023-04-06T04:21:43;-0.10;99.90
15872;DHT22;8035;51.962;7.162;2023-04-06T04:24:10;-0.10;99.90
15872;DHT22;8035;51.962;7.162;2023-04-06T04:26:36;-0.10;99.90
15872;DHT22;8035;51.962;7.162;2023-04-06T04:29:01;-0.10;99.90
15872;DHT22;8035;51.962;7.162;2023-04-06T04:31:27;-0.10;99.90
15872;DHT22;8035;51.962;7.162;2023-04-06T04:33:53;-0.10;99.90
15872;DHT22;8035;51.962;7.162;2023-04-06T04:36:18;-0.20;99.90
15872;DHT22;8035;51.962;7.162;2023-04-06T04:38:44;-0.20;99.90
15872;DHT22;8035;51.962;7.162;2023-04-06T04:41:10;-0.20;99.90
15872;DHT22;8035;51.962;7.162;2023-04-06T04:43:35;-0.20;99.90
15872;DHT22;8035;51.962;7.162;2023-04-06T04:46:01;-0.30;99.90
15872;DHT22;8035;51.962;7.162;2023-04-06T04:48:27;-0.30;99.90
15872;DHT22;8035;51.962;7.162;2023-04-06T04:50:52;-0.30;99.90
15872;DHT22;8035;51.962;7.162;2023-04-06T04:53:20;-0.20;99.90
15872;DHT22;8035;51.962;7.162;2023-04-06T04:55:46;-0.30;99.90
15872;DHT22;8035;51.962;7.162;2023-04-06T04:58:11;-0.30;99.90
15872;DHT22;8035;51.962;7.162;2023-04-06T05:00:42;-0.30;99.90
15872;DHT22;8035;51.962;7.162;2023-04-06T05:03:08;-0.30;99.90
15872;DHT22;8035;51.962;7.162;2023-04-06T05:05:34;-0.30;99.90
15872;DHT22;8035;51.962;7.162;2023-04-06T05:07:59;-0.30;99.90
15872;DHT22;8035;51.962;7.162;2023-04-06T05:10:25;-0.20;99.90
15872;DHT22;8035;51.962;7.162;2023-04-06T05:12:51;-0.20;99.90
15872;DHT22;8035;51.962;7.162;2023-04-06T05:15:17;-0.20;99.90
15872;DHT22;8035;51.962;7.162;2023-04-06T05:17:43;-0.20;99.90
15872;DHT22;8035;51.962;7.162;2023-04-06T05:20:09;-0.20;99.90
15872;DHT22;8035;51.962;7.162;2023-04-06T05:22:34;-0.20;99.90
15872;DHT22;8035;51.962;7.162;2023-04-06T05:25:02;-0.20;99.90
15872;DHT22;8035;51.962;7.162;2023-04-06T05:27:28;-0.10;99.90
15872;DHT22;8035;51.962;7.162;2023-04-06T05:29:54;-0.10;99.90
15872;DHT22;8035;51.962;7.162;2023-04-06T05:32:20;-0.10;99.90
15872;DHT22;8035;51.962;7.162;2023-04-06T05:34:48;0.00;99.90
15872;DHT22;8035;51.962;7.162;2023-04-06T05:37:15;0.10;99.90
15872;DHT22;8035;51.962;7.162;2023-04-06T05:39:41;0.10;99.90
15872;DHT22;8035;51.962;7.162;2023-04-06T05:42:06;0.10;99.90
15872;DHT22;8035;51.962;7.162;2023-04-06T05:44:32;0.20;99.90
15872;DHT22;8035;51.962;7.162;2023-04-06T05:46:58;0.20;99.90
15872;DHT22;8035;51.962;7.162;2023-04-06T05:49:24;0.20;99.90
15872;DHT22;8035;51.962;7.162;2023-04-06T05:51:50;0.30;99.90
15872;DHT22;8035;51.962;7.162;2023-04-06T05:54:15;0.40;99.90
15872;DHT22;8035;51.962;7.162;2023-04-06T05:56:41;0.40;99.90
15872;DHT22;8035;51.962;7.162;2023-04-06T05:59:06;0.50;99.90
15872;DHT22;8035;51.962;7.162;2023-04-06T06:01:33;0.50;99.90
15872;DHT22;8035;51.962;7.162;2023-04-06T06:04:01;0.60;99.90
15872;DHT22;8035;51.962;7.162;2023-04-06T06:06:28;0.70;99.90
15872;DHT22;8035;51.962;7.162;2023-04-06T06:08:55;0.80;99.90
15872;DHT22;8035;51.962;7.162;2023-04-06T06:11:24;0.90;99.90
15872;DHT22;8035;51.962;7.162;2023-04-06T06:13:50;1.00;99.90
15872;DHT22;8035;51.962;7.162;2023-04-06T06:16:17;1.10;99.90
15872;DHT22;8035;51.962;7.162;2023-04-06T06:18:43;1.20;99.90
15872;DHT22;8035;51.962;7.162;2023-04-06T06:21:09;1.40;99.90
15872;DHT22;8035;51.962;7.162;2023-04-06T06:23:36;1.50;99.90
15872;DHT22;8035;51.962;7.162;2023-04-06T06:26:02;1.70;99.90
15872;DHT22;8035;51.962;7.162;2023-04-06T06:28:28;1.90;99.90
15872;DHT22;8035;51.962;7.162;2023-04-06T06:30:54;2.40;99.90
15872;DHT22;8035;51.962;7.162;2023-04-06T06:33:19;2.80;99.90
15872;DHT22;8035;51.962;7.162;2023-04-06T06:38:11;3.30;99.90
15872;DHT22;8035;51.962;7.162;2023-04-06T15:08:01;4.40;99.90
15872;DHT22;8035;51.962;7.162;2023-04-06T15:10:27;11.30;99.90
15872;DHT22;8035;51.962;7.162;2023-04-06T15:12:52;11.20;99.90
15872;DHT22;8035;51.962;7.162;2023-04-06T15:15:19;11.30;99.90
15872;DHT22;8035;51.962;7.162;2023-04-06T15:17:44;11.40;99.90
15872;DHT22;8035;51.962;7.162;2023-04-06T15:20:10;11.30;99.90
15872;DHT22;8035;51.962;7.162;2023-04-06T15:22:36;11.20;99.90
15872;DHT22;8035;51.962;7.162;2023-04-06T15:25:02;11.20;99.90
15872;DHT22;8035;51.962;7.162;2023-04-06T15:27:27;11.20;99.90
15872;DHT22;8035;51.962;7.162;2023-04-06T15:29:53;11.20;99.90
15872;DHT22;8035;51.962;7.162;2023-04-06T15:32:19;11.20;99.90
15872;DHT22;8035;51.962;7.162;2023-04-06T15:34:45;11.20;99.90
15872;DHT22;8035;51.962;7.162;2023-04-06T15:37:10;11.20;99.90
15872;DHT22;8035;51.962;7.162;2023-04-06T15:39:36;11.20;99.90
15872;DHT22;8035;51.962;7.162;2023-04-06T15:42:03;11.20;99.90
15872;DHT22;8035;51.962;7.162;2023-04-06T15:44:28;11.20;99.90
15872;DHT22;8035;51.962;7.162;2023-04-06T15:46:54;11.20;99.90
15872;DHT22;8035;51.962;7.162;2023-04-06T15:49:21;11.20;99.90
15872;DHT22;8035;51.962;7.162;2023-04-06T15:51:47;11.10;99.90
15872;DHT22;8035;51.962;7.162;2023-04-06T15:54:13;11.00;99.90
15872;DHT22;8035;51.962;7.162;2023-04-06T15:56:40;10.90;99.90
15872;DHT22;8035;51.962;7.162;2023-04-06T15:59:05;10.80;99.90
15872;DHT22;8035;51.962;7.162;2023-04-06T16:01:32;10.70;99.90
15872;DHT22;8035;51.962;7.162;2023-04-06T16:03:58;10.60;99.90
15872;DHT22;8035;51.962;7.162;2023-04-06T16:06:23;10.50;99.90
15872;DHT22;8035;51.962;7.162;2023-04-06T16:08:49;10.40;99.90
15872;DHT22;8035;51.962;7.162;2023-04-06T16:11:15;10.40;99.90
15872;DHT22;8035;51.962;7.162;2023-04-06T16:13:41;10.30;99.90
15872;DHT22;8035;51.962;7.162;2023-04-06T16:16:07;10.30;99.90
15872;DHT22;8035;51.962;7.162;2023-04-06T16:18:32;10.20;99.90
15872;DHT22;8035;51.962;7.162;2023-04-06T16:20:58;10.20;99.90
15872;DHT22;8035;51.962;7.162;2023-04-06T16:23:24;10.20;99.90
15872;DHT22;8035;51.962;7.162;2023-04-06T16:25:50;10.10;99.90
15872;DHT22;8035;51.962;7.162;2023-04-06T16:28:16;10.00;99.90
15872;DHT22;8035;51.962;7.162;2023-04-06T16:30:42;10.00;99.90
15872;DHT22;8035;51.962;7.162;2023-04-06T16:33:09;9.90;99.90
15872;DHT22;8035;51.962;7.162;2023-04-06T16:35:35;9.80;99.90
15872;DHT22;8035;51.962;7.162;2023-04-06T16:38:00;9.80;99.90
15872;DHT22;8035;51.962;7.162;2023-04-06T16:40:26;9.70;99.90
15872;DHT22;8035;51.962;7.162;2023-04-06T16:42:52;9.60;99.90
15872;DHT22;8035;51.962;7.162;2023-04-06T16:45:17;9.50;99.90
15872;DHT22;8035;51.962;7.162;2023-04-06T16:47:43;9.50;99.90
15872;DHT22;8035;51.962;7.162;2023-04-06T16:50:09;9.40;99.90
15872;DHT22;8035;51.962;7.162;2023-04-06T16:52:35;9.40;99.90
15872;DHT22;8035;51.962;7.162;2023-04-06T16:55:01;9.30;99.90
15872;DHT22;8035;51.962;7.162;2023-04-06T16:57:27;9.30;99.90
15872;DHT22;8035;51.962;7.162;2023-04-06T16:59:55;9.20;99.90
15872;DHT22;8035;51.962;7.162;2023-04-06T17:02:22;9.20;99.90
15872;DHT22;8035;51.962;7.162;2023-04-06T17:04:49;9.20;99.90
15872;DHT22;8035;51.962;7.162;2023-04-06T17:07:15;9.10;99.90
15872;DHT22;8035;51.962;7.162;2023-04-06T17:09:40;9.10;99.90
15872;DHT22;8035;51.962;7.162;2023-04-06T17:12:07;9.00;99.90
15872;DHT22;8035;51.962;7.162;2023-04-06T17:14:33;8.90;99.90
15872;DHT22;8035;51.962;7.162;2023-04-06T17:16:59;8.90;99.90
15872;DHT22;8035;51.962;7.162;2023-04-06T17:19:25;8.80;99.90
15872;DHT22;8035;51.962;7.162;2023-04-06T17:21:51;8.80;99.90
15872;DHT22;8035;51.962;7.162;2023-04-06T17:24:17;8.70;99.90
15872;DHT22;8035;51.962;7.162;2023-04-06T17:26:43;8.70;99.90
15872;DHT22;8035;51.962;7.162;2023-04-06T17:29:09;8.70;99.90
15872;DHT22;8035;51.962;7.162;2023-04-06T17:31:34;8.60;99.90
15872;DHT22;8035;51.962;7.162;2023-04-06T17:34:00;8.60;99.90
15872;DHT22;8035;51.962;7.162;2023-04-06T17:36:26;8.60;99.90
15872;DHT22;8035;51.962;7.162;2023-04-06T17:38:54;8.60;99.90
15872;DHT22;8035;51.962;7.162;2023-04-06T17:41:20;8.50;99.90
15872;DHT22;8035;51.962;7.162;2023-04-06T17:43:46;8.50;99.90
15872;DHT22;8035;51.962;7.162;2023-04-06T17:46:12;8.50;99.90
15872;DHT22;8035;51.962;7.162;2023-04-06T17:48:38;8.40;99.90
15872;DHT22;8035;51.962;7.162;2023-04-06T17:51:04;8.40;99.90
15872;DHT22;8035;51.962;7.162;2023-04-06T17:53:29;8.30;99.90
15872;DHT22;8035;51.962;7.162;2023-04-06T17:55:57;8.30;99.90
15872;DHT22;8035;51.962;7.162;2023-04-06T17:58:23;8.20;99.90
15872;DHT22;8035;51.962;7.162;2023-04-06T18:00:48;8.20;99.90
15872;DHT22;8035;51.962;7.162;2023-04-06T18:03:14;8.20;99.90
15872;DHT22;8035;51.962;7.162;2023-04-06T18:05:40;8.20;99.90
15872;DHT22;8035;51.962;7.162;2023-04-06T18:08:05;8.10;99.90
15872;DHT22;8035;51.962;7.162;2023-04-06T18:10:35;8.10;99.90
15872;DHT22;8035;51.962;7.162;2023-04-06T18:13:01;8.00;99.90
15872;DHT22;8035;51.962;7.162;2023-04-06T18:15:26;7.90;99.90
15872;DHT22;8035;51.962;7.162;2023-04-06T18:17:52;7.90;99.90
15872;DHT22;8035;51.962;7.162;2023-04-06T18:20:17;7.80;99.90
15872;DHT22;8035;51.962;7.162;2023-04-06T18:22:43;7.70;99.90
15872;DHT22;8035;51.962;7.162;2023-04-06T18:25:09;7.70;99.90
15872;DHT22;8035;51.962;7.162;2023-04-06T18:27:35;7.70;99.90
15872;DHT22;8035;51.962;7.162;2023-04-06T18:30:01;7.70;99.90
15872;DHT22;8035;51.962;7.162;2023-04-06T18:32:27;7.70;99.90
15872;DHT22;8035;51.962;7.162;2023-04-06T18:34:55;7.70;99.90
15872;DHT22;8035;51.962;7.162;2023-04-06T18:37:23;7.60;99.90
15872;DHT22;8035;51.962;7.162;2023-04-06T18:39:49;7.60;99.90
15872;DHT22;8035;51.962;7.162;2023-04-06T18:42:15;7.60;99.90
15872;DHT22;8035;51.962;7.162;2023-04-06T18:44:44;7.50;99.90
15872;DHT22;8035;51.962;7.162;2023-04-06T18:47:10;7.50;99.90
15872;DHT22;8035;51.962;7.162;2023-04-06T18:49:35;7.50;99.90
15872;DHT22;8035;51.962;7.162;2023-04-06T18:52:03;7.40;99.90
15872;DHT22;8035;51.962;7.162;2023-04-06T18:54:29;7.40;99.90
15872;DHT22;8035;51.962;7.162;2023-04-06T18:56:54;7.40;99.90
15872;DHT22;8035;51.962;7.162;2023-04-06T18:59:21;7.40;99.90
15872;DHT22;8035;51.962;7.162;2023-04-06T19:01:47;7.40;99.90
15872;DHT22;8035;51.962;7.162;2023-04-06T19:04:15;7.40;99.90
15872;DHT22;8035;51.962;7.162;2023-04-06T19:06:41;7.40;99.90
15872;DHT22;8035;51.962;7.162;2023-04-06T19:09:06;7.40;99.90
15872;DHT22;8035;51.962;7.162;2023-04-06T19:11:32;7.40;99.90
15872;DHT22;8035;51.962;7.162;2023-04-06T19:13:58;7.40;99.90
15872;DHT22;8035;51.962;7.162;2023-04-06T19:16:24;7.30;99.90
15872;DHT22;8035;51.962;7.162;2023-04-06T19:18:51;7.40;99.90
15872;DHT22;8035;51.962;7.162;2023-04-06T19:21:18;7.40;99.90
15872;DHT22;8035;51.962;7.162;2023-04-06T19:23:45;7.30;99.90
15872;DHT22;8035;51.962;7.162;2023-04-06T19:26:13;7.40;99.90
15872;DHT22;8035;51.962;7.162;2023-04-06T19:28:38;7.40;99.90
15872;DHT22;8035;51.962;7.162;2023-04-06T19:31:09;7.30;99.90
15872;DHT22;8035;51.962;7.162;2023-04-06T19:33:36;7.30;99.90
15872;DHT22;8035;51.962;7.162;2023-04-06T19:36:03;7.30;99.90
15872;DHT22;8035;51.962;7.162;2023-04-06T19:38:30;7.30;99.90
15872;DHT22;8035;51.962;7.162;2023-04-06T19:40:57;7.20;99.90
15872;DHT22;8035;51.962;7.162;2023-04-06T19:43:22;7.30;99.90
15872;DHT22;8035;51.962;7.162;2023-04-06T19:45:48;7.30;99.90
15872;DHT22;8035;51.962;7.162;2023-04-06T19:48:14;7.20;99.90
15872;DHT22;8035;51.962;7.162;2023-04-06T19:50:40;7.30;99.90
15872;DHT22;8035;51.962;7.162;2023-04-06T19:53:05;7.30;99.90
15872;DHT22;8035;51.962;7.162;2023-04-06T19:55:33;7.20;99.90
15872;DHT22;8035;51.962;7.162;2023-04-06T19:57:59;7.20;99.90
15872;DHT22;8035;51.962;7.162;2023-04-06T20:00:25;7.30;99.90
15872;DHT22;8035;51.962;7.162;2023-04-06T20:02:50;7.20;99.90
15872;DHT22;8035;51.962;7.162;2023-04-06T20:05:16;7.20;99.90
15872;DHT22;8035;51.962;7.162;2023-04-06T20:07:42;7.20;99.90
15872;DHT22;8035;51.962;7.162;2023-04-06T20:10:08;7.20;99.90
15872;DHT22;8035;51.962;7.162;2023-04-06T20:12:34;7.20;99.90
15872;DHT22;8035;51.962;7.162;2023-04-06T20:15:00;7.10;99.90
15872;DHT22;8035;51.962;7.162;2023-04-06T20:17:25;7.10;99.90
15872;DHT22;8035;51.962;7.162;2023-04-06T20:19:51;7.10;99.90
15872;DHT22;8035;51.962;7.162;2023-04-06T20:22:18;7.10;99.90
15872;DHT22;8035;51.962;7.162;2023-04-06T20:25:03;7.10;99.90
15872;DHT22;8035;51.962;7.162;2023-04-06T20:27:29;7.10;99.90
15872;DHT22;8035;51.962;7.162;2023-04-06T20:29:54;7.10;99.90
15872;DHT22;8035;51.962;7.162;2023-04-06T20:32:20;7.10;99.90
15872;DHT22;8035;51.962;7.162;2023-04-06T20:34:47;7.00;99.90
15872;DHT22;8035;51.962;7.162;2023-04-06T20:37:13;7.00;99.90
15872;DHT22;8035;51.962;7.162;2023-04-06T20:39:39;7.00;99.90
15872;DHT22;8035;51.962;7.162;2023-04-06T20:42:05;7.00;99.90
15872;DHT22;8035;51.962;7.162;2023-04-06T20:44:33;7.00;99.90
15872;DHT22;8035;51.962;7.162;2023-04-06T20:46:59;7.00;99.90
15872;DHT22;8035;51.962;7.162;2023-04-06T20:49:24;7.00;99.90
15872;DHT22;8035;51.962;7.162;2023-04-06T20:51:50;7.00;99.90
15872;DHT22;8035;51.962;7.162;2023-04-06T20:54:16;6.90;99.90
15872;DHT22;8035;51.962;7.162;2023-04-06T20:59:27;6.90;99.90
15872;DHT22;8035;51.962;7.162;2023-04-06T21:01:53;6.90;99.90
15872;DHT22;8035;51.962;7.162;2023-04-06T21:04:18;6.90;99.90
15872;DHT22;8035;51.962;7.162;2023-04-06T21:06:50;6.90;99.90
15872;DHT22;8035;51.962;7.162;2023-04-06T21:09:15;6.90;99.90
15872;DHT22;8035;51.962;7.162;2023-04-06T21:11:41;6.90;99.90
15872;DHT22;8035;51.962;7.162;2023-04-06T21:14:07;6.90;99.90
15872;DHT22;8035;51.962;7.162;2023-04-06T21:16:32;6.90;99.90
15872;DHT22;8035;51.962;7.162;2023-04-06T21:18:58;6.90;99.90
15872;DHT22;8035;51.962;7.162;2023-04-06T21:21:24;6.90;99.90
15872;DHT22;8035;51.962;7.162;2023-04-06T21:23:51;6.90;99.90
15872;DHT22;8035;51.962;7.162;2023-04-06T21:26:17;6.80;99.90
15872;DHT22;8035;51.962;7.162;2023-04-06T21:28:43;6.80;99.90
15872;DHT22;8035;51.962;7.162;2023-04-06T21:31:10;6.80;99.90
15872;DHT22;8035;51.962;7.162;2023-04-06T21:33:35;6.80;99.90
15872;DHT22;8035;51.962;7.162;2023-04-06T21:36:07;6.80;99.90
15872;DHT22;8035;51.962;7.162;2023-04-06T21:38:33;6.80;99.90
15872;DHT22;8035;51.962;7.162;2023-04-06T21:41:04;6.80;99.90
15872;DHT22;8035;51.962;7.162;2023-04-06T21:43:31;6.80;99.90
15872;DHT22;8035;51.962;7.162;2023-04-06T21:45:57;6.80;99.90
15872;DHT22;8035;51.962;7.162;2023-04-06T21:48:22;6.80;99.90
15872;DHT22;8035;51.962;7.162;2023-04-06T21:50:48;6.80;99.90
15872;DHT22;8035;51.962;7.162;2023-04-06T21:53:14;6.80;99.90
15872;DHT22;8035;51.962;7.162;2023-04-06T21:55:44;6.80;99.90
15872;DHT22;8035;51.962;7.162;2023-04-06T21:58:10;6.80;99.90
15872;DHT22;8035;51.962;7.162;2023-04-06T22:00:36;6.80;99.90
15872;DHT22;8035;51.962;7.162;2023-04-06T22:03:02;6.80;99.90
15872;DHT22;8035;51.962;7.162;2023-04-06T22:05:27;6.80;99.90
15872;DHT22;8035;51.962;7.162;2023-04-06T22:07:53;6.80;99.90
15872;DHT22;8035;51.962;7.162;2023-04-06T22:13:03;6.80;99.90
15872;DHT22;8035;51.962;7.162;2023-04-06T22:15:29;6.80;99.90
15872;DHT22;8035;51.962;7.162;2023-04-06T22:17:55;6.80;99.90
15872;DHT22;8035;51.962;7.162;2023-04-06T22:20:21;6.80;99.90
15872;DHT22;8035;51.962;7.162;2023-04-06T22:22:47;6.80;99.90
15872;DHT22;8035;51.962;7.162;2023-04-06T22:25:12;6.70;99.90
15872;DHT22;8035;51.962;7.162;2023-04-06T22:27:38;6.70;99.90
15872;DHT22;8035;51.962;7.162;2023-04-06T22:30:04;6.80;99.90
15872;DHT22;8035;51.962;7.162;2023-04-06T22:32:30;6.80;99.90
15872;DHT22;8035;51.962;7.162;2023-04-06T22:34:55;6.80;99.90
15872;DHT22;8035;51.962;7.162;2023-04-06T22:37:21;6.80;99.90
15872;DHT22;8035;51.962;7.162;2023-04-06T22:39:46;6.80;99.90
15872;DHT22;8035;51.962;7.162;2023-04-06T22:42:12;6.80;99.90
15872;DHT22;8035;51.962;7.162;2023-04-06T22:44:38;6.70;99.90
15872;DHT22;8035;51.962;7.162;2023-04-06T22:47:03;6.70;99.90
15872;DHT22;8035;51.962;7.162;2023-04-06T22:49:29;6.80;99.90
15872;DHT22;8035;51.962;7.162;2023-04-06T22:51:55;6.70;99.90
15872;DHT22;8035;51.962;7.162;2023-04-06T22:54:20;6.70;99.90
15872;DHT22;8035;51.962;7.162;2023-04-06T22:56:46;6.70;99.90
15872;DHT22;8035;51.962;7.162;2023-04-06T22:59:12;6.70;99.90
15872;DHT22;8035;51.962;7.162;2023-04-06T23:01:37;6.70;99.90
15872;DHT22;8035;51.962;7.162;2023-04-06T23:04:03;6.70;99.90
15872;DHT22;8035;51.962;7.162;2023-04-06T23:06:29;6.70;99.90
15872;DHT22;8035;51.962;7.162;2023-04-06T23:08:55;6.70;99.90
15872;DHT22;8035;51.962;7.162;2023-04-06T23:11:21;6.70;99.90
15872;DHT22;8035;51.962;7.162;2023-04-06T23:13:46;6.70;99.90
15872;DHT22;8035;51.962;7.162;2023-04-06T23:16:12;6.70;99.90
15872;DHT22;8035;51.962;7.162;2023-04-06T23:18:38;6.70;99.90
15872;DHT22;8035;51.962;7.162;2023-04-06T23:21:06;6.70;99.90
15872;DHT22;8035;51.962;7.162;2023-04-06T23:23:32;6.70;99.90
15872;DHT22;8035;51.962;7.162;2023-04-06T23:25:58;6.80;99.90
15872;DHT22;8035;51.962;7.162;2023-04-06T23:28:23;6.70;99.90
15872;DHT22;8035;51.962;7.162;2023-04-06T23:30:49;6.70;99.90
15872;DHT22;8035;51.962;7.162;2023-04-06T23:33:15;6.70;99.90
15872;DHT22;8035;51.962;7.162;2023-04-06T23:35:41;6.70;99.90
15872;DHT22;8035;51.962;7.162;2023-04-06T23:38:06;6.70;99.90
15872;DHT22;8035;51.962;7.162;2023-04-06T23:40:32;6.70;99.90
15872;DHT22;8035;51.962;7.162;2023-04-06T23:42:58;6.70;99.90
15872;DHT22;8035;51.962;7.162;2023-04-06T23:45:23;6.70;99.90
15872;DHT22;8035;51.962;7.162;2023-04-06T23:47:49;6.70;99.90
15872;DHT22;8035;51.962;7.162;2023-04-06T23:50:14;6.70;99.90
15872;DHT22;8035;51.962;7.162;2023-04-06T23:52:40;6.70;99.90
15872;DHT22;8035;51.962;7.162;2023-04-06T23:55:06;6.70;99.90
15872;DHT22;8035;51.962;7.162;2023-04-06T23:57:32;6.70;99.90
15872;DHT22;8035;51.962;7.162;2023-04-06T23:59:57;6.70;99.90
